Overview Statistics Trail Chart Weather Telemetry Raw packets
 

This is the latest recevied weather packets stored in our database for station/object OM6ACB-6. If no packets are shown the sender has not sent any weather packets the latest 10 day(s).

<< 8 9 10 11 12 13 14 >>
Time Temp. Humidity Pressure Rain* Wind** Luminosity Snow
1788521127 28.33° C 20% 1022.9 hPa 0 mm - - -
1788520526 25° C 20% 1022.6 hPa 0 mm - - -
1788519926 27.22° C 20% 1022.7 hPa 0 mm - - -
1788519326 25° C 20% 1022.7 hPa 0 mm - - -
1788518726 24.44° C 20% 1022.7 hPa 0 mm - - -
1788518125 25° C 20% 1022.9 hPa 0 mm - - -
1788517525 25° C 20% 1022.9 hPa 0 mm - - -
1788516925 26.11° C 20% 1023.1 hPa 0 mm - - -
1788516324 24.44° C 20% 1022.9 hPa 0 mm - - -
1788515724 25° C 20% 1023.1 hPa 0 mm - - -
1788515124 23.89° C 21% 1023 hPa 0 mm - - -
1788514523 24.44° C 20% 1023.1 hPa 0 mm - - -
1788513923 23.33° C 21% 1023.1 hPa 0 mm - - -
1788513347 23.33° C 21% 1023.3 hPa 0 mm - - -
1788512723 25.56° C 20% 1023.6 hPa 0 mm - - -
1788512122 25° C 20% 1023.6 hPa 0 mm - - -
1788511522 24.44° C 20% 1023.4 hPa 0 mm - - -
1788510922 24.44° C 20% 1023.5 hPa 0 mm - - -
1788510321 24.44° C 20% 1023.5 hPa 0 mm - - -
1788509721 25° C 20% 1023.7 hPa 0 mm - - -
1788509121 25.56° C 20% 1023.7 hPa 0 mm - - -
1788508521 25° C 20% 1023.6 hPa 0 mm - - -
1788507920 24.44° C 20% 1023.5 hPa 0 mm - - -
1788507320 26.11° C 20% 1023.8 hPa 0 mm - - -
1788506720 23.89° C 21% 1023.5 hPa 0 mm - - -

* Rain latest hour (hover to see other rain measurements)
** Current wind speed in m/s (hover to see current wind gust speed)